Time;durP1;ratioP1;P1;durP2;ratioP2;P2;SDS_P1;SDS_P2;PMS_P1;PMS_P2;Temp;Humidity;BMP_temperature;BMP_pressure;BME280_temperature;BME280_humidity;BME280_pressure;Samples;Min_cycle;Max_cycle;Signal;HPM_P1;HPM_P2
2023/01/06 08:04:41;;;;;;;1.03;1.00;;;3.50;99.90;;;;;;5073691;28;20536;-79
2023/01/06 08:08:05;;;;;;;1.93;1.23;;;3.50;99.90;;;;;;5136489;27;20273;-80
2023/01/06 08:10:30;;;;;;;1.90;1.43;;;3.60;99.90;;;;;;5136604;28;20613;-79
2023/01/06 08:12:56;;;;;;;2.47;1.10;;;3.60;99.90;;;;;;5133615;28;20227;-80
2023/01/06 08:15:22;;;;;;;2.40;1.73;;;3.60;99.90;;;;;;5134131;28;20224;-80
2023/01/06 08:17:52;;;;;;;3.53;2.13;;;3.70;99.90;;;;;;5134358;27;20167;-79
2023/01/06 08:20:18;;;;;;;3.43;1.83;;;3.70;99.90;;;;;;5132968;28;20279;-79
2023/01/06 08:22:44;;;;;;;2.83;1.93;;;3.80;99.90;;;;;;5132718;28;20187;-79
2023/01/06 08:25:10;;;;;;;2.63;1.90;;;4.10;99.90;;;;;;5133660;27;20242;-80
2023/01/06 08:27:35;;;;;;;4.20;2.30;;;4.30;99.90;;;;;;5134127;27;20251;-79
2023/01/06 08:30:01;;;;;;;9.00;2.70;;;4.90;99.90;;;;;;5132437;28;20189;-79
2023/01/06 08:32:27;;;;;;;2.23;1.80;;;5.30;99.90;;;;;;5134723;27;20168;-80
2023/01/06 08:34:53;;;;;;;2.50;2.03;;;5.80;99.90;;;;;;5132763;28;20178;-80
2023/01/06 08:37:19;;;;;;;2.10;1.90;;;6.30;99.90;;;;;;5132605;28;20182;-81
2023/01/06 08:39:45;;;;;;;2.03;1.60;;;6.20;99.90;;;;;;5135129;27;20194;-80
2023/01/06 08:42:11;;;;;;;2.20;2.00;;;6.30;99.90;;;;;;5135345;27;20173;-80
2023/01/06 08:44:37;;;;;;;1.90;1.53;;;6.70;99.90;;;;;;5133861;27;20184;-80
2023/01/06 08:47:03;;;;;;;1.90;1.77;;;6.70;99.90;;;;;;5134526;27;20194;-80
2023/01/06 08:49:29;;;;;;;2.30;2.10;;;6.90;99.90;;;;;;5132014;28;20181;-80
2023/01/06 08:51:56;;;;;;;1.93;1.73;;;7.20;99.90;;;;;;5132831;28;20176;-82
2023/01/06 08:54:22;;;;;;;1.73;1.60;;;7.40;99.90;;;;;;5135598;27;20178;-80
2023/01/06 08:56:47;;;;;;;1.83;1.47;;;7.50;99.90;;;;;;5133951;28;20179;-81
2023/01/06 08:59:15;;;;;;;3.10;1.73;;;7.60;99.90;;;;;;5134470;28;20220;-81
2023/01/06 09:01:43;;;;;;;2.70;2.07;;;8.00;99.90;;;;;;5135282;28;20182;-82
2023/01/06 09:04:09;;;;;;;5.43;2.90;;;7.90;99.90;;;;;;5133833;28;20186;-82
2023/01/06 09:06:36;;;;;;;3.13;2.13;;;8.20;99.90;;;;;;5134095;28;20577;-82
2023/01/06 09:09:03;;;;;;;2.83;2.07;;;8.50;99.90;;;;;;5133891;28;20578;-81
2023/01/06 09:11:29;;;;;;;2.93;1.93;;;8.80;99.90;;;;;;5133795;28;20240;-82
2023/01/06 09:13:55;;;;;;;2.33;1.80;;;8.70;99.90;;;;;;5134879;27;20163;-81
2023/01/06 09:16:21;;;;;;;2.37;1.67;;;8.50;99.90;;;;;;5131802;28;20186;-81
2023/01/06 09:18:48;;;;;;;1.60;1.40;;;8.50;99.90;;;;;;5124315;27;20643;-81
2023/01/06 09:21:18;;;;;;;1.63;1.50;;;8.80;99.90;;;;;;5103463;28;20298;-82
2023/01/06 09:23:44;;;;;;;2.97;1.90;;;9.20;99.90;;;;;;5119314;28;20267;-82
2023/01/06 09:26:10;;;;;;;2.33;1.90;;;9.70;99.90;;;;;;5120952;28;20255;-82
2023/01/06 09:28:35;;;;;;;1.90;1.70;;;10.00;99.90;;;;;;5121051;28;20672;-82
2023/01/06 09:31:01;;;;;;;6.20;4.43;;;10.50;99.90;;;;;;5119439;28;20202;-83
2023/01/06 09:33:27;;;;;;;2.07;1.87;;;10.80;99.90;;;;;;5120547;28;20168;-82
2023/01/06 09:35:52;;;;;;;2.80;1.93;;;10.70;99.90;;;;;;5118671;28;20171;-81
2023/01/06 09:38:18;;;;;;;1.43;1.33;;;10.60;99.90;;;;;;5119315;28;20172;-82
2023/01/06 09:41:03;;;;;;;3.00;2.07;;;10.60;99.90;;;;;;5119283;28;20195;-81
2023/01/06 09:43:44;;;;;;;1.43;1.33;;;10.80;99.90;;;;;;5120751;28;20251;-82
2023/01/06 09:46:14;;;;;;;2.97;1.80;;;11.00;99.90;;;;;;5120707;28;20615;-82
2023/01/06 09:48:51;;;;;;;3.33;1.87;;;10.90;99.90;;;;;;5119840;28;20171;-83
2023/01/06 09:51:20;;;;;;;2.13;1.77;;;11.00;99.90;;;;;;5120925;28;20242;-83
2023/01/06 09:54:19;;;;;;;2.67;1.90;;;11.20;99.90;;;;;;5119295;28;20637;-82
2023/01/06 09:56:50;;;;;;;2.17;1.90;;;10.90;99.90;;;;;;5067249;28;20184;-83
2023/01/06 09:59:28;;;;;;;2.30;2.10;;;10.90;99.90;;;;;;5120883;28;20669;-82
2023/01/06 10:01:58;;;;;;;3.33;2.93;;;10.90;99.90;;;;;;5119845;28;20160;-83
2023/01/06 10:04:26;;;;;;;4.30;3.90;;;10.70;99.90;;;;;;5120729;28;20162;-82
2023/01/06 10:07:21;;;;;;;2.97;2.67;;;10.80;99.90;;;;;;5118310;28;20211;-82
2023/01/06 10:10:03;;;;;;;3.40;3.10;;;11.10;99.90;;;;;;5120420;28;20192;-84
2023/01/06 10:12:45;;;;;;;3.53;3.13;;;11.10;99.90;;;;;;5120575;28;20213;-83
2023/01/06 10:15:25;;;;;;;2.97;2.77;;;11.10;99.90;;;;;;5119906;28;20193;-83
2023/01/06 10:18:18;;;;;;;4.40;4.00;;;11.20;99.90;;;;;;5120671;28;20186;-81
2023/01/06 10:20:50;;;;;;;3.60;2.73;;;11.70;99.90;;;;;;5119696;28;20742;-82
2023/01/06 10:23:29;;;;;;;4.23;3.83;;;11.60;99.90;;;;;;5118042;28;20192;-83
2023/01/06 10:26:05;;;;;;;5.57;3.90;;;11.90;99.90;;;;;;5120097;28;20171;-84
2023/01/06 10:28:35;;;;;;;6.20;5.60;;;11.90;99.90;;;;;;5118776;28;20578;-83
2023/01/06 10:31:05;;;;;;;3.47;2.67;;;12.00;99.90;;;;;;5116332;28;20296;-83
2023/01/06 10:33:36;;;;;;;2.77;2.57;;;11.70;99.90;;;;;;5118048;28;20202;-83
2023/01/06 10:36:02;;;;;;;3.00;2.40;;;11.60;99.90;;;;;;5118720;28;20177;-83
2023/01/06 10:38:36;;;;;;;2.20;2.00;;;11.30;99.90;;;;;;5120188;28;20172;-83
2023/01/06 10:41:29;;;;;;;4.57;3.40;;;10.80;99.90;;;;;;5119367;28;20287;-83
2023/01/06 10:43:56;;;;;;;2.40;2.20;;;10.20;99.90;;;;;;5120265;28;20498;-82
2023/01/06 10:46:23;;;;;;;2.00;1.90;;;10.00;99.90;;;;;;5121437;28;20206;-82
2023/01/06 10:48:50;;;;;;;2.07;1.97;;;9.70;99.90;;;;;;5120383;28;20266;-83
2023/01/06 10:51:35;;;;;;;2.23;2.03;;;9.30;99.90;;;;;;5119981;28;20236;-82
2023/01/06 10:54:09;;;;;;;2.17;1.83;;;9.10;99.90;;;;;;5120208;28;20172;-82
2023/01/06 10:56:38;;;;;;;2.43;1.90;;;9.10;99.90;;;;;;5120023;28;20208;-82
2023/01/06 10:59:09;;;;;;;2.30;1.70;;;9.00;99.90;;;;;;5121015;28;20526;-82
2023/01/06 11:01:45;;;;;;;2.00;1.80;;;8.90;99.90;;;;;;5123222;28;20196;-82
2023/01/06 11:04:14;;;;;;;2.57;2.07;;;9.50;99.90;;;;;;5120354;28;20159;-83
2023/01/06 11:07:02;;;;;;;2.43;1.90;;;10.50;99.90;;;;;;5118381;28;20672;-81
2023/01/06 11:09:39;;;;;;;2.47;2.17;;;11.00;99.90;;;;;;5118943;28;20186;-82
2023/01/06 11:12:25;;;;;;;1.90;1.70;;;10.60;99.90;;;;;;5119096;28;20168;-81
2023/01/06 11:15:06;;;;;;;2.03;1.80;;;10.50;99.90;;;;;;5118290;28;20148;-81
2023/01/06 11:17:32;;;;;;;2.17;1.00;;;10.50;99.90;;;;;;5118539;28;20179;-82
2023/01/06 11:20:27;;;;;;;0.83;0.83;;;10.10;99.90;;;;;;5117874;28;20203;-83
2023/01/06 11:22:53;;;;;;;1.10;1.00;;;9.40;99.90;;;;;;5117169;28;20198;-82
2023/01/06 11:25:19;;;;;;;1.50;1.17;;;9.00;99.90;;;;;;5115823;28;20187;-83
2023/01/06 11:27:46;;;;;;;1.60;1.20;;;8.70;99.90;;;;;;5117372;28;20202;-82
2023/01/06 11:30:26;;;;;;;1.30;1.10;;;8.60;99.90;;;;;;5116839;28;20195;-84
2023/01/06 11:32:52;;;;;;;1.53;1.33;;;8.50;99.90;;;;;;5121395;28;20204;-83
2023/01/06 11:35:20;;;;;;;1.10;1.00;;;8.50;99.90;;;;;;5121614;28;20179;-84
2023/01/06 11:37:46;;;;;;;1.17;1.07;;;8.40;99.90;;;;;;5121879;28;20190;-83
2023/01/06 11:40:23;;;;;;;1.40;1.20;;;8.30;99.90;;;;;;5122380;28;20195;-83
2023/01/06 11:42:52;;;;;;;1.33;1.03;;;8.20;99.90;;;;;;5118731;28;20193;-83
2023/01/06 11:45:37;;;;;;;1.10;0.93;;;8.20;99.90;;;;;;5117791;28;20210;-83
2023/01/06 11:48:34;;;;;;;1.13;1.00;;;8.00;99.90;;;;;;5116317;28;20203;-83
2023/01/06 11:51:03;;;;;;;1.87;1.50;;;8.00;99.90;;;;;;5098684;28;20290;-83
2023/01/06 11:53:29;;;;;;;1.20;1.10;;;8.10;99.90;;;;;;5115191;28;20178;-85
2023/01/06 11:55:56;;;;;;;1.30;1.10;;;8.10;99.90;;;;;;5114193;28;20177;-85
2023/01/06 11:58:47;;;;;;;1.27;1.17;;;7.90;99.90;;;;;;5115156;28;20182;-83
2023/01/06 12:01:39;;;;;;;1.40;1.30;;;7.90;99.90;;;;;;5118780;28;20269;-84
2023/01/06 12:04:11;;;;;;;1.60;1.30;;;7.90;99.90;;;;;;5118833;28;20175;-81
2023/01/06 12:06:44;;;;;;;1.67;1.30;;;7.80;99.90;;;;;;5118025;28;20711;-83
2023/01/06 12:09:20;;;;;;;1.40;1.30;;;7.80;99.90;;;;;;5119123;28;20169;-81
2023/01/06 12:11:49;;;;;;;1.20;1.10;;;7.80;99.90;;;;;;5117794;28;20180;-82
2023/01/06 12:14:21;;;;;;;1.20;1.10;;;7.90;99.90;;;;;;5120145;28;20170;-82
2023/01/06 12:17:05;;;;;;;2.17;1.07;;;7.80;99.90;;;;;;5117991;28;20269;-84
2023/01/06 12:19:49;;;;;;;1.10;1.00;;;7.80;99.90;;;;;;5118721;28;20188;-83
2023/01/06 12:22:37;;;;;;;1.33;1.13;;;7.80;99.90;;;;;;5119037;28;20180;-83
2023/01/06 12:25:05;;;;;;;1.27;1.10;;;7.80;99.90;;;;;;5119038;28;20631;-85
2023/01/06 12:27:40;;;;;;;1.57;1.30;;;7.80;99.90;;;;;;5120144;28;20205;-82
2023/01/06 12:30:46;;;;;;;1.93;1.23;;;8.00;99.90;;;;;;5119200;28;20693;-85
2023/01/06 12:33:29;;;;;;;1.20;1.10;;;8.10;99.90;;;;;;5118659;28;20177;-83
2023/01/06 12:36:01;;;;;;;1.67;1.40;;;8.10;99.90;;;;;;5118901;28;20166;-84
2023/01/06 12:38:54;;;;;;;1.77;1.57;;;8.00;99.90;;;;;;5118805;28;20186;-84
2023/01/06 12:41:34;;;;;;;2.00;1.80;;;8.00;99.90;;;;;;5117413;28;20203;-82
2023/01/06 12:44:22;;;;;;;1.97;1.77;;;8.00;99.90;;;;;;5118007;28;20166;-83
2023/01/06 12:46:55;;;;;;;1.30;1.20;;;8.00;99.90;;;;;;5120617;28;20204;-85
2023/01/06 12:49:46;;;;;;;1.27;1.17;;;7.80;99.90;;;;;;5121153;28;20162;-84
2023/01/06 12:52:18;;;;;;;1.67;1.57;;;7.80;99.90;;;;;;5109373;28;20221;-84
2023/01/06 12:54:50;;;;;;;1.37;1.27;;;7.80;99.90;;;;;;5122848;28;20612;-82
2023/01/06 12:57:39;;;;;;;2.17;1.80;;;7.80;99.90;;;;;;5122688;28;20638;-84
2023/01/06 13:00:23;;;;;;;2.00;1.57;;;7.70;99.90;;;;;;5124227;28;20293;-85
2023/01/06 13:03:16;;;;;;;1.30;1.20;;;7.70;99.90;;;;;;5124835;28;20206;-82
2023/01/06 13:06:00;;;;;;;1.30;1.20;;;7.70;99.90;;;;;;5123786;28;20650;-83
2023/01/06 13:08:42;;;;;;;1.83;1.63;;;7.60;99.90;;;;;;5125343;28;20249;-82
2023/01/06 13:11:19;;;;;;;1.80;1.50;;;7.70;99.90;;;;;;5123511;28;20194;-83
2023/01/06 13:14:05;;;;;;;1.23;1.13;;;7.80;99.90;;;;;;5123676;28;20181;-83
2023/01/06 13:17:09;;;;;;;2.20;1.33;;;7.70;99.90;;;;;;5126103;27;20169;-82
2023/01/06 13:19:41;;;;;;;2.20;1.87;;;7.70;99.90;;;;;;5124251;28;20252;-82
2023/01/06 13:22:13;;;;;;;3.23;2.50;;;7.70;99.90;;;;;;5123340;28;20178;-82
2023/01/06 13:24:47;;;;;;;1.83;1.50;;;7.80;99.90;;;;;;5123287;28;20638;-82
2023/01/06 13:27:36;;;;;;;0.90;0.90;;;7.80;99.90;;;;;;5123847;27;20264;-82
2023/01/06 13:30:40;;;;;;;2.23;1.97;;;7.80;99.90;;;;;;5123429;28;20205;-82
2023/01/06 13:33:42;;;;;;;0.87;0.87;;;7.80;99.90;;;;;;5124725;28;20172;-82
2023/01/06 13:36:37;;;;;;;7.87;4.70;;;7.80;99.90;;;;;;5117335;28;20284;-82
2023/01/06 13:39:21;;;;;;;1.70;1.40;;;7.80;99.90;;;;;;5121638;28;20168;-82
2023/01/06 13:41:51;;;;;;;1.17;1.07;;;7.70;99.90;;;;;;5124130;28;20179;-81
2023/01/06 13:44:21;;;;;;;1.00;0.70;;;7.70;99.90;;;;;;5124318;28;20261;-81
2023/01/06 13:46:51;;;;;;;5.70;2.20;;;7.80;99.90;;;;;;5122183;28;20266;-82
2023/01/06 13:49:17;;;;;;;4.77;2.87;;;;;;;;;;5122884;28;20176;-82
2023/01/06 13:51:43;;;;;;;1.57;1.10;;;7.90;99.90;;;;;;5121325;28;20270;-81
2023/01/06 13:54:40;;;;;;;1.27;0.70;;;7.90;99.90;;;;;;5121802;28;20186;-81
2023/01/06 13:57:20;;;;;;;0.90;0.80;;;7.90;99.90;;;;;;5123317;28;20168;-81
2023/01/06 13:59:51;;;;;;;0.63;0.60;;;7.80;99.90;;;;;;5121553;28;20220;-82
2023/01/06 14:02:35;;;;;;;2.13;1.10;;;7.70;99.90;;;;;;5122467;28;20190;-82
2023/01/06 14:05:04;;;;;;;1.53;0.90;;;7.70;99.90;;;;;;5121921;28;20564;-82
2023/01/06 14:07:47;;;;;;;0.97;0.90;;;7.80;99.90;;;;;;5125314;28;20217;-82
2023/01/06 14:10:36;;;;;;;0.80;0.80;;;7.90;99.90;;;;;;5125703;28;20462;-82
2023/01/06 14:13:06;;;;;;;0.90;0.90;;;7.90;99.90;;;;;;5120187;28;20180;-82
2023/01/06 14:15:35;;;;;;;2.20;0.80;;;7.80;99.90;;;;;;5119427;28;20199;-81
2023/01/06 14:18:02;;;;;;;1.60;1.40;;;7.80;99.90;;;;;;5116414;28;20187;-82
2023/01/06 14:20:37;;;;;;;2.27;1.40;;;7.70;99.90;;;;;;5116399;28;20200;-81
2023/01/06 14:23:12;;;;;;;1.33;1.23;;;7.70;99.90;;;;;;5116161;28;20225;-82
2023/01/06 14:25:41;;;;;;;3.03;1.10;;;7.80;99.90;;;;;;5115578;28;20181;-82
2023/01/06 14:28:21;;;;;;;1.23;1.10;;;7.70;99.90;;;;;;5115495;28;20216;-82
2023/01/06 14:30:48;;;;;;;1.30;1.20;;;7.70;99.90;;;;;;5120576;28;20250;-82
2023/01/06 14:33:39;;;;;;;1.70;1.30;;;7.70;99.90;;;;;;5120658;28;20201;-82
2023/01/06 14:36:13;;;;;;;1.40;1.30;;;7.70;99.90;;;;;;5122980;28;20261;-82
2023/01/06 14:38:47;;;;;;;1.30;1.20;;;7.70;99.90;;;;;;5105810;28;20172;-82
2023/01/06 14:41:19;;;;;;;1.17;1.07;;;7.70;99.90;;;;;;5121081;28;20204;-82
2023/01/06 14:44:01;;;;;;;1.20;1.10;;;7.60;99.90;;;;;;5119131;28;20183;-81
2023/01/06 14:46:44;;;;;;;2.60;1.30;;;7.60;99.90;;;;;;5118707;28;20250;-82
2023/01/06 15:05:40;;;;;;;1.20;1.10;;;;;;;;;;5077149;28;20929;-81
2023/01/06 15:16:30;;;;;;;2.83;1.40;;;7.50;99.90;;;;;;5139448;27;20267;-80
